Time;durP1;ratioP1;P1;durP2;ratioP2;P2;SDS_P1;SDS_P2;PMS_P1;PMS_P2;Temp;Humidity;BMP_temperature;BMP_pressure;BME280_temperature;BME280_humidity;BME280_pressure;Samples;Min_cycle;Max_cycle;Signal;HPM_P1;HPM_P2
2022/07/10 00:00:29;;;;;;;1.52;0.63;;;23.90;86.10;;;-143.79;100.00;62634.88;4999381;28;20658;-52
2022/07/10 00:02:55;;;;;;;1.73;0.70;;;23.50;85.80;;;-143.79;100.00;62634.88;4999343;28;20039;-52
2022/07/10 00:05:23;;;;;;;1.95;0.60;;;23.70;52.80;;;-143.79;100.00;62634.88;4999165;28;20054;-52
2022/07/10 00:07:49;;;;;;;1.95;0.43;;;23.50;85.80;;;-143.79;100.00;62634.88;4999556;28;20030;-51
2022/07/10 00:10:19;;;;;;;2.90;0.40;;;23.60;67.80;;;-143.79;100.00;62634.88;4999312;28;20396;-55
2022/07/10 00:12:46;;;;;;;2.45;0.77;;;23.80;85.60;;;-143.79;100.00;62634.88;4999247;28;20034;-53
2022/07/10 00:15:13;;;;;;;0.70;0.40;;;23.30;83.40;;;-143.79;100.00;62634.88;4999551;28;20030;-52
2022/07/10 00:17:39;;;;;;;4.18;0.98;;;23.50;85.50;;;-143.79;100.00;62634.88;4999429;28;20034;-51
2022/07/10 00:20:06;;;;;;;2.58;0.70;;;23.60;86.40;;;-143.79;100.00;62634.88;4999486;28;20088;-51
2022/07/10 00:22:34;;;;;;;0.90;0.40;;;23.90;81.20;;;-143.79;100.00;62634.88;4999045;28;20499;-52
2022/07/10 00:25:02;;;;;;;1.15;0.70;;;23.90;86.30;;;-143.79;100.00;62634.88;4999070;28;20133;-54
2022/07/10 00:27:28;;;;;;;1.90;0.60;;;;;;;-143.79;100.00;62634.88;4999425;28;20040;-53
2022/07/10 00:29:54;;;;;;;0.57;0.35;;;;;;;-143.79;100.00;62634.88;4999371;28;20030;-53
2022/07/10 00:32:20;;;;;;;1.67;0.50;;;23.90;65.40;;;-143.79;100.00;62634.88;4999121;28;20401;-54
2022/07/10 00:34:46;;;;;;;2.13;0.40;;;;;;;-143.79;100.00;62634.88;4999271;28;20038;-52
2022/07/10 00:37:12;;;;;;;1.63;0.60;;;23.60;70.80;;;-143.79;100.00;62634.88;4999083;28;20038;-53
2022/07/10 00:39:38;;;;;;;1.45;0.40;;;23.20;86.60;;;-143.79;100.00;62634.88;4999019;28;20501;-51
2022/07/10 00:42:13;;;;;;;1.77;0.50;;;23.70;62.50;;;-143.79;100.00;62634.88;4999280;28;20093;-50
2022/07/10 00:44:40;;;;;;;1.63;0.45;;;23.50;86.40;;;-143.79;100.00;62634.88;4998909;28;20038;-52
2022/07/10 00:47:07;;;;;;;0.85;0.40;;;23.40;62.60;;;-143.79;100.00;62634.88;4998931;28;20034;-51
2022/07/10 00:49:37;;;;;;;1.20;0.45;;;23.50;86.20;;;-143.79;100.00;62634.88;4998962;28;20042;-54
2022/07/10 00:52:07;;;;;;;1.13;0.60;;;23.60;86.40;;;-143.79;100.00;62634.88;4998888;28;20038;-47
2022/07/10 00:54:35;;;;;;;2.22;0.60;;;23.60;53.10;;;-143.79;100.00;62634.88;4999088;28;20045;-47
2022/07/10 00:57:05;;;;;;;1.15;0.40;;;23.60;86.50;;;-143.79;100.00;62634.88;4998839;28;20485;-47
2022/07/10 00:59:31;;;;;;;1.17;0.60;;;23.70;86.40;;;-143.79;100.00;62634.88;4999167;28;20038;-48
2022/07/10 01:01:57;;;;;;;1.48;0.47;;;23.50;86.60;;;-143.79;100.00;62634.88;4998937;28;20076;-46
2022/07/10 01:04:23;;;;;;;1.73;0.60;;;;;;;-143.79;100.00;62634.88;4998583;28;20074;-46
2022/07/10 01:06:50;;;;;;;0.80;0.35;;;;;;;-143.79;100.00;62634.88;4998756;28;20026;-46
2022/07/10 01:09:16;;;;;;;1.80;0.60;;;23.40;52.30;;;-143.79;100.00;62634.88;4995481;28;20034;-45
2022/07/10 01:11:42;;;;;;;1.20;0.43;;;;;;;-143.79;100.00;62634.88;4995662;28;20134;-47
2022/07/10 01:14:09;;;;;;;1.33;0.50;;;24.00;58.00;;;-143.79;100.00;62634.88;4995590;28;20062;-46
2022/07/10 01:16:34;;;;;;;0.68;0.40;;;23.60;86.70;;;-143.79;100.00;62634.88;4994453;28;20117;-47
2022/07/10 01:19:00;;;;;;;3.70;0.50;;;23.60;52.30;;;-143.79;100.00;62634.88;4995491;28;20117;-47
2022/07/10 01:21:32;;;;;;;1.27;0.47;;;23.40;86.50;;;-143.79;100.00;62634.88;4995511;28;20031;-46
2022/07/10 01:23:58;;;;;;;1.67;0.70;;;23.60;52.80;;;-143.79;100.00;62634.88;4995403;28;20037;-46
2022/07/10 01:26:25;;;;;;;1.58;0.60;;;23.40;86.20;;;-143.79;100.00;62634.88;4995712;28;20113;-46
2022/07/10 01:28:52;;;;;;;2.42;0.60;;;23.50;52.60;;;-143.79;100.00;62634.88;4995372;28;20038;-48
2022/07/10 01:31:20;;;;;;;1.52;0.57;;;23.60;86.30;;;-143.79;100.00;62634.88;4995299;28;20034;-46
2022/07/10 01:33:49;;;;;;;0.98;0.40;;;23.40;57.40;;;-143.79;100.00;62634.88;4995195;28;20045;-46
2022/07/10 01:36:16;;;;;;;1.75;0.47;;;23.20;85.70;;;-143.79;100.00;62634.88;4995173;28;20512;-46
2022/07/10 01:38:42;;;;;;;1.52;0.60;;;;;;;-143.79;100.00;62634.88;4995129;28;20038;-46
2022/07/10 01:41:08;;;;;;;1.85;0.38;;;23.40;65.10;;;-143.79;100.00;62634.88;4995093;28;20034;-46
2022/07/10 01:43:35;;;;;;;1.08;0.50;;;23.20;64.40;;;-143.79;100.00;62634.88;4995150;28;20034;-46
2022/07/10 01:46:05;;;;;;;2.17;0.68;;;23.00;85.80;;;-143.79;100.00;62634.88;4995130;28;20509;-46
2022/07/10 01:48:31;;;;;;;1.47;0.40;;;23.20;85.80;;;-143.79;100.00;62634.88;4995307;28;20042;-46
2022/07/10 01:50:57;;;;;;;1.90;0.70;;;23.20;86.00;;;-143.79;100.00;62634.88;4994928;28;20300;-46
2022/07/10 01:53:23;;;;;;;1.10;0.43;;;23.20;85.80;;;-143.79;100.00;62634.88;4994847;28;20096;-46
2022/07/10 01:55:49;;;;;;;1.65;0.55;;;23.60;86.40;;;-143.79;100.00;62634.88;4995177;28;20166;-47
2022/07/10 01:58:14;;;;;;;0.68;0.50;;;23.20;85.90;;;-143.79;100.00;62634.88;4994820;28;20040;-45
2022/07/10 02:00:40;;;;;;;0.88;0.50;;;23.50;86.00;;;-143.79;100.00;62634.88;4994802;28;20088;-46
2022/07/10 02:05:50;;;;;;;1.65;0.45;;;23.50;62.60;;;-143.79;100.00;62634.88;4994679;28;20057;-50
2022/07/10 02:08:16;;;;;;;1.60;0.38;;;;;;;-143.79;100.00;62634.88;4994597;28;20038;-53
2022/07/10 02:10:42;;;;;;;2.10;0.55;;;;;;;-143.79;100.00;62634.88;4994592;28;20062;-49
2022/07/10 02:13:09;;;;;;;2.30;0.45;;;;;;;-143.79;100.00;62634.88;4994454;28;20049;-53
2022/07/10 02:15:35;;;;;;;1.80;0.80;;;23.50;70.20;;;-143.79;100.00;62634.88;4994773;28;20034;-51
2022/07/10 02:18:01;;;;;;;1.42;0.50;;;23.50;86.10;;;-143.79;100.00;62634.88;4994706;28;20043;-52
2022/07/10 02:20:26;;;;;;;1.48;0.65;;;23.20;85.90;;;-143.79;100.00;62634.88;4994506;28;20054;-50
2022/07/10 02:22:52;;;;;;;2.58;0.60;;;23.60;86.70;;;-143.79;100.00;62634.88;4994475;28;20034;-51
2022/07/10 02:25:18;;;;;;;0.32;0.22;;;23.30;60.70;;;-143.79;100.00;62634.88;4994251;28;20030;-50
2022/07/10 02:27:44;;;;;;;2.20;0.60;;;;;;;-143.79;100.00;62634.88;4994527;28;20026;-52
2022/07/10 02:30:10;;;;;;;1.10;0.38;;;;;;;-143.79;100.00;62634.88;4994242;28;20034;-53
2022/07/10 02:32:36;;;;;;;1.02;0.47;;;23.40;86.40;;;-143.79;100.00;62634.88;4994137;28;20058;-52
2022/07/10 02:35:03;;;;;;;3.22;0.60;;;23.20;86.30;;;-143.79;100.00;62634.88;4994107;28;20503;-51
2022/07/10 02:37:29;;;;;;;1.52;0.55;;;23.20;86.70;;;-143.79;100.00;62634.88;4994402;28;20453;-53
2022/07/10 02:39:55;;;;;;;1.92;0.50;;;23.50;86.70;;;-143.79;100.00;62634.88;4994093;28;20030;-52
2022/07/10 02:42:21;;;;;;;1.67;0.77;;;23.40;86.10;;;-143.79;100.00;62634.88;4993981;28;20038;-51
2022/07/10 02:44:46;;;;;;;0.47;0.30;;;23.50;86.20;;;-143.79;100.00;62634.88;4994005;28;20085;-53
2022/07/10 02:47:12;;;;;;;1.73;0.70;;;23.50;78.70;;;-143.79;100.00;62634.88;4994168;28;20030;-52
2022/07/10 02:49:38;;;;;;;0.70;0.40;;;23.40;80.10;;;-143.79;100.00;62634.88;4993860;28;20038;-51
2022/07/10 02:52:04;;;;;;;2.40;0.60;;;;;;;-143.79;100.00;62634.88;4993803;28;20034;-49
2022/07/10 02:54:30;;;;;;;1.15;0.40;;;23.30;86.30;;;-143.79;100.00;62634.88;4993920;28;19918;-52
2022/07/10 02:56:56;;;;;;;1.02;0.45;;;;;;;-143.79;100.00;62634.88;4993744;28;20495;-53
2022/07/10 02:59:22;;;;;;;1.17;0.47;;;23.20;79.60;;;-143.79;100.00;62634.88;4993687;28;20045;-46
2022/07/10 03:01:48;;;;;;;0.85;0.60;;;;;;;-143.79;100.00;62634.88;4993880;28;20034;-47
2022/07/10 03:04:14;;;;;;;2.35;0.60;;;;;;;-143.79;100.00;62634.88;4993368;28;20053;-46
2022/07/10 03:06:40;;;;;;;1.80;0.40;;;;;;;-143.79;100.00;62634.88;4993565;28;20034;-47
2022/07/10 03:09:06;;;;;;;2.47;0.52;;;;;;;-143.79;100.00;62634.88;4993515;28;20035;-47
2022/07/10 03:11:32;;;;;;;2.70;0.63;;;;;;;-143.79;100.00;62634.88;4993422;28;20050;-46
2022/07/10 03:13:58;;;;;;;1.85;0.50;;;23.50;65.30;;;-143.79;100.00;62634.88;4993624;28;20034;-46
2022/07/10 03:16:24;;;;;;;1.10;0.35;;;;;;;-143.79;100.00;62634.88;4993738;28;20534;-47
2022/07/10 03:18:50;;;;;;;1.17;0.40;;;;;;;-143.79;100.00;62634.88;4993433;28;20035;-47
2022/07/10 03:21:16;;;;;;;1.85;0.63;;;;;;;-143.79;100.00;62634.88;4993351;28;20089;-47
2022/07/10 03:23:42;;;;;;;2.30;0.57;;;;;;;-143.79;100.00;62634.88;4993259;28;20026;-47
2022/07/10 03:26:08;;;;;;;1.65;0.50;;;22.90;59.20;;;-143.79;100.00;62634.88;4993206;28;20042;-46
2022/07/10 03:28:34;;;;;;;0.90;0.47;;;;;;;-143.79;100.00;62634.88;4993261;28;20038;-46
2022/07/10 03:31:00;;;;;;;0.50;0.45;;;;;;;-143.79;100.00;62634.88;4992774;28;20034;-47
2022/07/10 03:33:26;;;;;;;1.63;0.50;;;;;;;-143.79;100.00;62634.88;4992856;28;20126;-46
2022/07/10 03:35:52;;;;;;;2.65;0.50;;;;;;;-143.79;100.00;62634.88;4993168;28;20480;-46
2022/07/10 03:38:18;;;;;;;2.10;0.75;;;23.50;84.40;;;-143.79;100.00;62634.88;4992971;28;20030;-46
2022/07/10 03:40:47;;;;;;;1.17;0.50;;;;;;;-143.79;100.00;62634.88;4993061;28;20042;-47
2022/07/10 03:43:16;;;;;;;1.13;0.43;;;23.40;86.50;;;-143.79;100.00;62634.88;4993039;28;20030;-47
2022/07/10 03:45:42;;;;;;;0.70;0.60;;;;;;;-143.79;100.00;62634.88;4992947;28;20045;-47
2022/07/10 03:48:08;;;;;;;1.27;0.73;;;23.10;74.60;;;-143.79;100.00;62634.88;4993001;28;20030;-47
2022/07/10 03:50:34;;;;;;;1.25;0.40;;;;;;;-143.79;100.00;62634.88;4992898;28;20508;-47
2022/07/10 03:53:00;;;;;;;1.27;0.50;;;;;;;-143.79;100.00;62634.88;4992926;28;20158;-47
2022/07/10 03:55:26;;;;;;;1.30;0.40;;;;;;;-143.79;100.00;62634.88;4992872;28;20066;-46
2022/07/10 03:58:02;;;;;;;2.50;0.55;;;23.00;83.90;;;-143.79;100.00;62634.88;4992878;28;20034;-47
2022/07/10 04:00:33;;;;;;;0.43;0.22;;;23.20;53.10;;;-143.79;100.00;62634.88;4992912;28;20493;-47
2022/07/10 04:03:02;;;;;;;1.17;0.32;;;23.00;86.80;;;-143.79;100.00;62634.88;4993087;28;20117;-46
2022/07/10 04:05:29;;;;;;;1.47;0.50;;;;;;;-143.79;100.00;62634.88;4992708;28;20080;-47
2022/07/10 04:07:59;;;;;;;1.48;0.60;;;23.00;87.30;;;-143.79;100.00;62634.88;4993095;28;20442;-46
2022/07/10 04:10:26;;;;;;;;;;;23.10;54.30;;;-143.79;100.00;62634.88;4993265;28;20038;-47
2022/07/10 04:12:52;;;;;;;1.30;0.60;;;23.40;76.00;;;-143.79;100.00;62634.88;4992752;28;20017;-46
2022/07/10 04:15:19;;;;;;;1.13;0.60;;;22.70;66.40;;;-143.79;100.00;62634.88;4992750;28;20102;-47
2022/07/10 04:17:46;;;;;;;0.95;0.45;;;23.40;87.70;;;-143.79;100.00;62634.88;4992897;28;20034;-47
2022/07/10 04:20:12;;;;;;;2.38;0.57;;;23.20;87.20;;;-143.79;100.00;62634.88;4992673;28;20088;-46
2022/07/10 04:22:38;;;;;;;1.15;0.52;;;23.00;86.80;;;-143.79;100.00;62634.88;4991438;28;20046;-47
2022/07/10 04:25:05;;;;;;;0.77;0.40;;;23.30;85.40;;;-143.79;100.00;62634.88;4992838;28;20040;-47
2022/07/10 04:27:31;;;;;;;1.63;0.45;;;22.60;87.50;;;-143.79;100.00;62634.88;4991400;28;20046;-46
2022/07/10 04:29:57;;;;;;;0.85;0.45;;;23.00;87.50;;;-143.79;100.00;62634.88;4992603;28;20038;-46
2022/07/10 04:32:23;;;;;;;0.90;0.40;;;23.30;88.30;;;-143.79;100.00;62634.88;4992577;28;20519;-52
2022/07/10 04:34:48;;;;;;;1.95;0.63;;;23.40;88.90;;;-143.79;100.00;62634.88;4992513;28;20138;-53
2022/07/10 04:37:14;;;;;;;1.77;0.57;;;23.00;64.70;;;-143.79;100.00;62634.88;4992603;28;20460;-51
2022/07/10 04:39:40;;;;;;;2.35;0.40;;;23.30;88.40;;;-143.79;100.00;62634.88;4992778;28;20046;-49
2022/07/10 04:42:07;;;;;;;1.10;0.43;;;22.70;88.10;;;-143.79;100.00;62634.88;4992725;28;20377;-53
2022/07/10 04:44:34;;;;;;;1.30;0.65;;;23.00;55.30;;;-143.79;100.00;62634.88;4994567;28;20032;-52
2022/07/10 04:47:00;;;;;;;1.58;0.50;;;;;;;-143.79;100.00;62634.88;4996137;28;20069;-50
2022/07/10 04:49:26;;;;;;;3.13;0.90;;;23.10;70.60;;;-143.79;100.00;62634.88;4996217;28;20034;-51
2022/07/10 04:51:52;;;;;;;0.65;0.40;;;23.20;78.50;;;-143.79;100.00;62634.88;4996053;28;20038;-52
2022/07/10 04:54:19;;;;;;;1.50;0.32;;;;;;;-143.79;100.00;62634.88;4995877;28;20038;-53
2022/07/10 04:56:45;;;;;;;0.88;0.50;;;;;;;-143.79;100.00;62634.88;4996161;28;20081;-51
2022/07/10 04:59:11;;;;;;;1.40;0.57;;;23.00;89.00;;;-143.79;100.00;62634.88;4995921;28;20058;-51
2022/07/10 05:01:37;;;;;;;1.27;0.50;;;;;;;-143.79;100.00;62634.88;4996046;28;20062;-50
2022/07/10 05:04:04;;;;;;;1.20;0.50;;;22.70;89.10;;;-143.79;100.00;62634.88;4995647;28;20046;-52
2022/07/10 05:06:30;;;;;;;2.55;0.50;;;;;;;-143.79;100.00;62634.88;4995827;28;20042;-53
2022/07/10 05:08:56;;;;;;;3.20;0.70;;;;;;;-143.79;100.00;62634.88;4995829;28;20037;-46
2022/07/10 05:11:23;;;;;;;0.50;0.40;;;;;;;-143.79;100.00;62634.88;4995999;28;20041;-46
2022/07/10 05:13:49;;;;;;;1.85;0.50;;;23.20;87.80;;;-143.79;100.00;62634.88;4995593;28;20057;-46
2022/07/10 05:16:16;;;;;;;1.30;0.47;;;23.20;87.70;;;-143.79;100.00;62634.88;4994349;28;20026;-46
2022/07/10 05:18:42;;;;;;;1.58;0.70;;;;;;;-143.79;100.00;62634.88;4995567;28;20048;-46
2022/07/10 05:21:08;;;;;;;2.33;0.73;;;23.20;53.60;;;-143.79;100.00;62634.88;4995768;28;20374;-46
2022/07/10 05:23:35;;;;;;;1.00;0.50;;;23.00;76.60;;;-143.79;100.00;62634.88;4995738;28;20042;-46
2022/07/10 05:26:00;;;;;;;0.90;0.40;;;23.30;88.80;;;-143.79;100.00;62634.88;4995521;28;20061;-46
2022/07/10 05:28:26;;;;;;;1.02;0.60;;;;;;;-143.79;100.00;62634.88;4995758;28;20038;-46
2022/07/10 05:30:52;;;;;;;1.00;0.50;;;23.00;86.80;;;-143.79;100.00;62634.88;4995453;28;20030;-47
2022/07/10 05:33:18;;;;;;;1.15;0.68;;;23.40;69.40;;;-143.79;100.00;62634.88;4995235;28;20104;-47
2022/07/10 05:35:44;;;;;;;0.75;0.40;;;22.70;70.10;;;-143.79;100.00;62634.88;4995271;28;20030;-45
2022/07/10 05:38:10;;;;;;;1.15;0.43;;;;;;;-143.79;100.00;62634.88;4995222;28;20034;-46
2022/07/10 05:40:36;;;;;;;1.17;0.50;;;23.10;82.20;;;-143.79;100.00;62634.88;4995175;28;20038;-46
2022/07/10 05:43:03;;;;;;;2.97;0.60;;;;;;;-143.79;100.00;62634.88;4995135;28;20130;-47
2022/07/10 05:45:29;;;;;;;1.20;0.45;;;;;;;-143.79;100.00;62634.88;4995459;28;20038;-47
2022/07/10 05:47:55;;;;;;;0.88;0.40;;;23.00;89.50;;;-143.79;100.00;62634.88;4995294;28;20034;-46
2022/07/10 05:50:21;;;;;;;1.90;0.60;;;23.10;90.00;;;-143.79;100.00;62634.88;4994973;28;20030;-46
2022/07/10 05:52:47;;;;;;;2.08;0.38;;;23.00;89.20;;;-143.79;100.00;62634.88;4994944;28;20053;-47
2022/07/10 05:55:14;;;;;;;2.00;0.60;;;23.20;89.60;;;-143.79;100.00;62634.88;4994400;28;20042;-46
2022/07/10 05:57:40;;;;;;;1.58;0.45;;;;;;;-143.79;100.00;62634.88;4995117;28;20030;-46
2022/07/10 06:00:08;;;;;;;1.73;0.50;;;23.00;55.40;;;-143.79;100.00;62634.88;4994817;28;20046;-46
2022/07/10 06:02:33;;;;;;;0.90;0.40;;;23.20;90.50;;;-143.79;100.00;62634.88;4995047;28;20068;-48
2022/07/10 06:04:59;;;;;;;1.80;0.57;;;22.80;89.80;;;-143.79;100.00;62634.88;4994772;28;20094;-46
2022/07/10 06:07:26;;;;;;;1.98;0.80;;;22.90;88.50;;;-143.79;100.00;62634.88;4994691;28;20030;-47
2022/07/10 06:09:53;;;;;;;1.20;0.40;;;23.20;88.40;;;-143.79;100.00;62634.88;4994651;28;20050;-46
2022/07/10 06:12:18;;;;;;;0.80;0.68;;;23.10;88.80;;;-143.79;100.00;62634.88;4994551;28;20326;-46
2022/07/10 06:14:44;;;;;;;2.15;0.60;;;23.00;89.60;;;-143.79;100.00;62634.88;4994581;28;20034;-46
2022/07/10 06:17:10;;;;;;;1.58;0.57;;;;;;;-143.79;100.00;62634.88;4994477;28;20496;-46
2022/07/10 06:19:36;;;;;;;1.35;0.40;;;23.30;89.10;;;-143.79;100.00;62634.88;4994736;28;20042;-47
2022/07/10 06:24:46;;;;;;;0.85;0.43;;;23.00;89.70;;;-143.79;100.00;62634.88;4994473;28;20080;-46
2022/07/10 06:27:12;;;;;;;1.25;0.32;;;22.70;88.30;;;-143.79;100.00;62634.88;4994250;28;20066;-47
2022/07/10 06:29:38;;;;;;;1.52;0.60;;;22.70;71.70;;;-143.79;100.00;62634.88;4994314;28;20034;-46
2022/07/10 06:32:05;;;;;;;1.45;0.30;;;23.10;55.70;;;-143.79;100.00;62634.88;4994424;28;20034;-46
2022/07/10 06:34:30;;;;;;;2.28;0.60;;;22.60;89.20;;;-143.79;100.00;62634.88;4994363;28;20109;-46
2022/07/10 06:36:56;;;;;;;0.93;0.63;;;23.20;71.40;;;-143.79;100.00;62634.88;4994122;28;20153;-46
2022/07/10 06:39:22;;;;;;;1.27;0.38;;;;;;;-143.79;100.00;62634.88;4994048;28;20088;-46
2022/07/10 06:41:48;;;;;;;3.13;0.60;;;;;;;-143.79;100.00;62634.88;4994082;28;20545;-47
2022/07/10 06:44:14;;;;;;;3.88;0.95;;;22.60;66.90;;;-143.79;100.00;62634.88;4993978;28;20100;-47
2022/07/10 06:46:40;;;;;;;1.60;0.57;;;;;;;-143.79;100.00;62634.88;4994191;28;20485;-46
2022/07/10 06:49:06;;;;;;;1.38;0.43;;;22.90;80.50;;;-143.79;100.00;62634.88;4992976;28;20026;-47
2022/07/10 06:51:32;;;;;;;1.23;0.50;;;23.20;61.80;;;-143.79;100.00;62634.88;4993874;28;20088;-48
2022/07/10 06:53:58;;;;;;;1.90;0.65;;;23.40;67.50;;;-143.79;100.00;62634.88;4993686;28;20474;-47
2022/07/10 06:56:25;;;;;;;3.58;0.40;;;;;;;-143.79;100.00;62634.88;4993681;28;20034;-48
2022/07/10 06:58:50;;;;;;;3.83;0.70;;;23.00;90.60;;;-143.79;100.00;62634.88;4992585;28;20035;-47
2022/07/10 07:01:16;;;;;;;5.57;0.77;;;23.20;88.90;;;-143.79;100.00;62634.88;4993612;28;20101;-46
2022/07/10 07:03:42;;;;;;;2.95;0.50;;;23.00;71.10;;;-143.79;100.00;62634.88;4993424;28;20058;-46
2022/07/10 07:06:10;;;;;;;1.85;0.60;;;;;;;-143.79;100.00;62634.88;4992900;28;20089;-46
2022/07/10 07:08:36;;;;;;;4.82;0.55;;;;;;;-143.79;100.00;62634.88;4993763;28;20062;-47
2022/07/10 07:11:02;;;;;;;2.30;0.40;;;23.20;61.50;;;-143.79;100.00;62634.88;4992192;28;20089;-46
2022/07/10 07:13:29;;;;;;;1.60;0.60;;;;;;;-143.79;100.00;62634.88;4993348;28;20038;-46
2022/07/10 07:16:00;;;;;;;3.20;0.40;;;23.30;91.10;;;-143.79;100.00;62634.88;4993487;28;20034;-47
2022/07/10 07:18:32;;;;;;;3.33;0.60;;;;;;;-143.79;100.00;62634.88;4993662;28;20497;-47
2022/07/10 07:23:44;;;;;;;3.00;0.60;;;;;;;-143.79;100.00;62634.88;4993666;28;20089;-48
2022/07/10 07:26:10;;;;;;;1.40;0.50;;;;;;;-143.79;100.00;62634.88;4993267;28;20041;-47
2022/07/10 07:28:36;;;;;;;2.45;0.40;;;;;;;-143.79;100.00;62634.88;4992679;28;20027;-47
2022/07/10 07:31:02;;;;;;;1.38;0.63;;;;;;;-143.79;100.00;62634.88;4993334;28;20382;-46
2022/07/10 07:33:28;;;;;;;1.67;0.52;;;23.40;72.50;;;-143.79;100.00;62634.88;4993100;28;20038;-48
2022/07/10 07:35:54;;;;;;;3.15;0.30;;;;;;;-143.79;100.00;62634.88;4993104;28;20033;-48
2022/07/10 07:38:20;;;;;;;2.58;0.40;;;;;;;-143.79;100.00;62634.88;4993257;28;20034;-47
2022/07/10 07:40:46;;;;;;;1.90;0.60;;;;;;;-143.79;100.00;62634.88;4993263;28;20105;-48
2022/07/10 07:43:12;;;;;;;2.55;0.88;;;23.50;75.00;;;-143.79;100.00;62634.88;4992855;28;20030;-47
2022/07/10 07:45:38;;;;;;;2.08;0.68;;;;;;;-143.79;100.00;62634.88;4992931;28;20035;-47
2022/07/10 07:48:04;;;;;;;1.42;0.60;;;23.30;65.80;;;-143.79;100.00;62634.88;4992812;28;20034;-46
2022/07/10 07:50:34;;;;;;;0.90;0.50;;;23.40;65.50;;;-143.79;100.00;62634.88;4992757;28;20042;-46
2022/07/10 07:53:01;;;;;;;;;;;23.20;57.60;;;-143.79;100.00;62634.88;4993274;28;20038;-46
2022/07/10 07:55:28;;;;;;;3.30;0.77;;;23.40;90.40;;;-143.79;100.00;62634.88;4992922;28;19953;-47
2022/07/10 07:57:56;;;;;;;3.17;0.57;;;23.50;85.80;;;-143.79;100.00;62634.88;4992932;28;20528;-47
2022/07/10 08:00:27;;;;;;;3.55;0.60;;;23.10;72.50;;;-143.79;100.00;62634.88;4993120;28;20030;-46
2022/07/10 08:02:54;;;;;;;1.38;0.70;;;23.20;91.00;;;-143.79;100.00;62634.88;4992739;28;20043;-46
2022/07/10 08:05:23;;;;;;;4.32;0.55;;;23.10;80.00;;;-143.79;100.00;62634.88;4992551;28;20125;-46
2022/07/10 08:07:58;;;;;;;4.65;0.70;;;23.20;90.50;;;-143.79;100.00;62634.88;4992805;28;20038;-46
2022/07/10 08:10:27;;;;;;;2.50;0.35;;;23.20;90.40;;;-143.79;100.00;62634.88;4992820;28;20035;-47
2022/07/10 08:12:53;;;;;;;2.35;0.70;;;23.60;90.70;;;-143.79;100.00;62634.88;4992742;28;20040;-47
2022/07/10 08:15:23;;;;;;;3.30;0.65;;;23.60;90.50;;;-143.79;100.00;62634.88;4992679;28;20046;-46
2022/07/10 08:17:52;;;;;;;2.40;0.60;;;23.20;90.80;;;-143.79;100.00;62634.88;4993827;28;20042;-46
2022/07/10 08:20:18;;;;;;;3.13;0.70;;;;;;;-143.79;100.00;62634.88;4996930;28;20038;-46
2022/07/10 08:22:44;;;;;;;2.05;0.73;;;;;;;-143.79;100.00;62634.88;4996593;28;20045;-47
2022/07/10 08:25:11;;;;;;;0.85;0.40;;;23.30;57.40;;;-143.79;100.00;62634.88;4996523;28;20464;-46
2022/07/10 08:27:37;;;;;;;1.15;0.32;;;23.00;90.60;;;-143.79;100.00;62634.88;4996504;28;20042;-45
2022/07/10 08:30:08;;;;;;;1.38;0.60;;;23.30;91.10;;;-143.79;100.00;62634.88;4996536;28;20121;-46
2022/07/10 08:32:36;;;;;;;4.45;0.85;;;23.10;72.80;;;-143.79;100.00;62634.88;4996648;28;20026;-46
2022/07/10 08:35:02;;;;;;;2.80;0.50;;;;;;;-143.79;100.00;62634.88;4996382;28;20046;-46
2022/07/10 08:37:28;;;;;;;1.15;0.70;;;23.50;74.60;;;-143.79;100.00;62634.88;4996282;28;20108;-47
2022/07/10 08:39:54;;;;;;;1.65;0.57;;;23.50;64.30;;;-143.79;100.00;62634.88;4994867;28;20463;-46
2022/07/10 08:42:21;;;;;;;1.80;0.50;;;23.40;56.20;;;-143.79;100.00;62634.88;4996228;28;20031;-47
2022/07/10 08:44:47;;;;;;;1.50;0.50;;;22.90;90.10;;;-143.79;100.00;62634.88;4996143;28;20125;-48
2022/07/10 08:47:14;;;;;;;1.70;0.65;;;23.20;90.20;;;-143.79;100.00;62634.88;4996488;28;20038;-47
2022/07/10 08:49:47;;;;;;;1.50;0.80;;;23.20;68.10;;;-143.79;100.00;62634.88;4996134;28;20097;-47
2022/07/10 08:52:24;;;;;;;2.10;0.50;;;23.40;53.60;;;-143.79;100.00;62634.88;4994957;28;20477;-46
2022/07/10 08:54:50;;;;;;;1.35;0.50;;;23.30;89.50;;;-143.79;100.00;62634.88;4995962;28;20084;-47
2022/07/10 08:57:18;;;;;;;2.55;0.70;;;23.30;77.80;;;-143.79;100.00;62634.88;4996026;28;20027;-47
2022/07/10 08:59:44;;;;;;;2.92;0.50;;;23.50;55.20;;;-143.79;100.00;62634.88;4995899;28;20038;-47
2022/07/10 09:02:10;;;;;;;3.13;0.80;;;;;;;-143.79;100.00;62634.88;4995722;28;20046;-47
2022/07/10 09:04:36;;;;;;;1.40;0.70;;;;;;;-143.79;100.00;62634.88;4995675;28;20042;-46
2022/07/10 09:07:04;;;;;;;1.42;0.65;;;;;;;-143.79;100.00;62634.88;4995844;28;20097;-46
2022/07/10 09:09:30;;;;;;;1.52;0.63;;;;;;;-143.79;100.00;62634.88;4995677;28;20085;-47
2022/07/10 09:11:59;;;;;;;1.23;0.50;;;23.50;56.10;;;-143.79;100.00;62634.88;4995645;28;20062;-48
2022/07/10 09:14:28;;;;;;;0.88;0.50;;;23.70;88.80;;;-143.79;100.00;62634.88;4995864;28;20049;-47
2022/07/10 09:16:54;;;;;;;1.23;0.60;;;;;;;-143.79;100.00;62634.88;4995644;28;20065;-49
2022/07/10 09:19:21;;;;;;;2.00;0.68;;;;;;;-143.79;100.00;62634.88;4995272;28;20022;-47
2022/07/10 09:21:52;;;;;;;3.75;0.70;;;23.80;90.00;;;-143.79;100.00;62634.88;4995341;28;20038;-48
2022/07/10 09:24:19;;;;;;;1.48;0.60;;;23.50;55.10;;;-143.79;100.00;62634.88;4995504;28;20034;-47
2022/07/10 09:26:54;;;;;;;1.40;0.35;;;23.50;89.50;;;-143.79;100.00;62634.88;4995451;28;20531;-47
2022/07/10 09:29:20;;;;;;;0.98;0.38;;;;;;;-143.79;100.00;62634.88;4994494;28;20038;-46
2022/07/10 09:31:54;;;;;;;0.90;0.57;;;23.70;53.90;;;-143.79;100.00;62634.88;4995384;28;20074;-46
2022/07/10 09:34:43;;;;;;;3.95;0.70;;;23.70;53.90;;;-143.79;100.00;62634.88;4995463;28;20049;-49
2022/07/10 09:37:29;;;;;;;2.40;0.60;;;23.80;89.90;;;-143.79;100.00;62634.88;4995512;28;20038;-47
2022/07/10 09:40:07;;;;;;;1.33;0.60;;;23.90;89.80;;;-143.79;100.00;62634.88;4995177;28;20034;-47
2022/07/10 09:42:37;;;;;;;1.67;0.50;;;23.50;90.40;;;-143.79;100.00;62634.88;4995175;28;20034;-47
2022/07/10 09:45:18;;;;;;;1.58;0.50;;;23.50;89.80;;;-143.79;100.00;62634.88;4995082;28;20037;-46
2022/07/10 09:47:49;;;;;;;2.25;0.50;;;23.80;56.50;;;-143.79;100.00;62634.88;4995319;28;20038;-48
2022/07/10 09:50:36;;;;;;;1.20;0.65;;;23.90;90.10;;;-143.79;100.00;62634.88;4995080;28;20069;-47
2022/07/10 09:53:09;;;;;;;2.03;0.70;;;23.70;53.80;;;-143.79;100.00;62634.88;4995029;28;20031;-48
2022/07/10 09:55:36;;;;;;;0.70;0.50;;;24.00;90.10;;;-143.79;100.00;62634.88;4994960;28;20026;-48
2022/07/10 09:58:09;;;;;;;1.17;0.60;;;23.60;77.20;;;-143.79;100.00;62634.88;4993742;28;20122;-48
2022/07/10 10:00:40;;;;;;;1.83;0.82;;;23.40;89.20;;;-143.79;100.00;62634.88;4994870;28;20087;-48
2022/07/10 10:03:09;;;;;;;1.95;0.50;;;23.60;61.90;;;-143.79;100.00;62634.88;4994854;28;20026;-52
2022/07/10 10:05:44;;;;;;;1.33;0.40;;;23.90;90.00;;;-143.79;100.00;62634.88;4994690;28;20390;-52
2022/07/10 10:08:17;;;;;;;1.13;0.40;;;23.80;56.40;;;-143.79;100.00;62634.88;4993541;28;20069;-50
2022/07/10 10:10:48;;;;;;;2.90;0.88;;;23.80;53.10;;;-143.79;100.00;62634.88;4994545;28;20034;-52
2022/07/10 10:13:20;;;;;;;2.17;0.40;;;24.00;55.00;;;-143.79;100.00;62634.88;4994494;28;20077;-50
2022/07/10 10:15:53;;;;;;;0.60;0.50;;;23.50;88.70;;;-143.79;100.00;62634.88;4994646;28;20030;-51
2022/07/10 10:18:24;;;;;;;1.38;0.57;;;24.30;88.90;;;-143.79;100.00;62634.88;4994283;28;20061;-51
2022/07/10 10:20:52;;;;;;;0.57;0.40;;;23.70;89.10;;;-143.79;100.00;62634.88;4994385;28;20637;-47
2022/07/10 10:23:25;;;;;;;2.03;0.40;;;23.90;52.70;;;-143.79;100.00;62634.88;4994115;28;20035;-50
2022/07/10 10:25:56;;;;;;;2.78;0.70;;;23.80;89.70;;;-143.79;100.00;62634.88;4994179;28;20077;-49